Time;durP1;ratioP1;P1;durP2;ratioP2;P2;SDS_P1;SDS_P2;PMS_P1;PMS_P2;Temp;Humidity;BMP_temperature;BMP_pressure;BME280_temperature;BME280_humidity;BME280_pressure;Samples;Min_cycle;Max_cycle;Signal;HPM_P1;HPM_P2
2023/09/09 00:02:01;;;;;;;;;;;26.10;61.60;;;;;;5028947;28;43013;-79
2023/09/09 00:04:26;;;;;;;;;;;26.20;61.80;;;;;;5025240;28;42950;-79
2023/09/09 00:06:51;;;;;;;;;;;26.00;61.70;;;;;;5025379;28;43122;-79
2023/09/09 00:09:17;;;;;;;;;;;26.10;61.60;;;;;;5034327;28;43356;-79
2023/09/09 00:11:42;;;;;;;;;;;26.00;61.00;;;;;;5045270;28;42963;-79
2023/09/09 00:14:08;;;;;;;;;;;26.00;61.50;;;;;;5037023;28;42945;-79
2023/09/09 00:16:36;;;;;;;;;;;26.00;61.80;;;;;;5025556;28;43031;-79
2023/09/09 00:19:02;;;;;;;;;;;26.20;59.80;;;;;;5025981;28;43541;-83
2023/09/09 00:21:29;;;;;;;;;;;25.90;61.40;;;;;;5025523;28;43016;-79
2023/09/09 00:23:55;;;;;;;;;;;25.90;61.50;;;;;;5025121;28;43481;-79
2023/09/09 00:26:20;;;;;;;;;;;26.00;61.80;;;;;;5024845;28;42950;-79
2023/09/09 00:28:46;;;;;;;;;;;26.00;61.90;;;;;;5024832;28;43364;-78
2023/09/09 00:31:11;;;;;;;;;;;25.90;62.00;;;;;;5027083;28;42932;-80
2023/09/09 00:33:37;;;;;;;;;;;25.90;61.90;;;;;;5044436;28;43594;-80
2023/09/09 00:36:02;;;;;;;;;;;25.90;62.00;;;;;;5041831;28;43106;-78
2023/09/09 00:38:28;;;;;;;;;;;26.00;62.30;;;;;;5024770;28;42899;-78
2023/09/09 00:41:10;;;;;;;;;;;26.00;62.00;;;;;;5036979;28;43162;-78
2023/09/09 00:43:37;;;;;;;;;;;25.80;59.50;;;;;;5019060;28;44493;-79
2023/09/09 00:46:03;;;;;;;;;;;25.90;62.00;;;;;;5036952;28;42999;-79
2023/09/09 00:48:29;;;;;;;;;;;25.90;61.80;;;;;;5034327;28;43882;-79
2023/09/09 00:50:55;;;;;;;;;;;26.00;62.00;;;;;;5041664;28;43844;-79
2023/09/09 00:53:21;;;;;;;;;;;25.90;62.00;;;;;;5035570;28;43616;-79
2023/09/09 00:55:46;;;;;;;;;;;25.90;62.00;;;;;;5036330;28;42864;-88
2023/09/09 00:58:12;;;;;;;;;;;25.90;62.00;;;;;;5033546;28;42984;-78
2023/09/09 01:00:38;;;;;;;;;;;25.80;62.00;;;;;;5030665;28;42945;-79
2023/09/09 01:03:05;;;;;;;;;;;25.90;62.00;;;;;;5025373;28;43324;-80
2023/09/09 01:05:31;;;;;;;;;;;25.80;61.30;;;;;;5032465;28;42950;-80
2023/09/09 01:07:56;;;;;;;;;;;25.80;62.00;;;;;;5038602;28;43581;-79
2023/09/09 01:10:23;;;;;;;;;;;25.70;61.30;;;;;;5035465;28;42956;-89
2023/09/09 01:12:50;;;;;;;;;;;26.00;62.10;;;;;;5026218;28;43454;-84
2023/09/09 01:15:15;;;;;;;;;;;25.80;62.00;;;;;;5024986;28;43200;-88
2023/09/09 01:17:41;;;;;;;;;;;25.70;61.40;;;;;;5043114;28;43137;-82
2023/09/09 01:20:10;;;;;;;;;;;25.80;62.00;;;;;;5029969;28;42953;-80
2023/09/09 01:22:36;;;;;;;;;;;25.80;61.70;;;;;;5034541;28;42969;-82
2023/09/09 01:25:06;;;;;;;;;;;25.80;61.90;;;;;;5039371;28;42943;-80
2023/09/09 01:27:32;;;;;;;;;;;25.70;59.50;;;;;;5037165;28;43340;-85
2023/09/09 01:29:58;;;;;;;;;;;25.80;61.90;;;;;;5024056;28;42997;-79
2023/09/09 01:32:23;;;;;;;;;;;25.80;61.90;;;;;;5024719;28;43679;-79
2023/09/09 01:34:50;;;;;;;;;;;25.80;61.80;;;;;;5025101;28;43005;-79
2023/09/09 01:37:16;;;;;;;;;;;25.70;61.60;;;;;;5024796;28;43520;-80
2023/09/09 01:39:41;;;;;;;;;;;25.90;61.80;;;;;;5023034;28;42971;-78
2023/09/09 01:42:07;;;;;;;;;;;25.80;61.30;;;;;;5025094;28;43031;-79
2023/09/09 01:44:32;;;;;;;;;;;25.80;61.60;;;;;;5015264;28;43382;-79
2023/09/09 01:46:58;;;;;;;;;;;25.90;61.70;;;;;;5036544;28;43157;-79
2023/09/09 01:49:23;;;;;;;;;;;25.80;61.70;;;;;;5043359;28;43010;-79
2023/09/09 01:51:49;;;;;;;;;;;25.70;61.20;;;;;;5043501;28;43472;-79
2023/09/09 01:54:14;;;;;;;;;;;26.00;61.70;;;;;;5024413;28;43123;-79
2023/09/09 01:56:40;;;;;;;;;;;25.80;61.60;;;;;;5022563;28;43761;-79
2023/09/09 01:59:05;;;;;;;;;;;25.70;61.60;;;;;;5024227;28;43679;-79
2023/09/09 02:01:30;;;;;;;;;;;25.80;61.70;;;;;;5023113;28;43481;-79
2023/09/09 02:03:56;;;;;;;;;;;25.80;61.20;;;;;;5028837;28;43012;-80
2023/09/09 02:06:22;;;;;;;;;;;25.80;61.90;;;;;;5043380;28;43771;-83
2023/09/09 02:08:47;;;;;;;;;;;25.60;61.70;;;;;;5043109;28;43007;-87
2023/09/09 02:11:13;;;;;;;;;;;25.80;62.00;;;;;;5046973;28;43658;-80
2023/09/09 02:13:38;;;;;;;;;;;25.50;61.50;;;;;;5027721;28;43128;-79
2023/09/09 02:16:07;;;;;;;;;;;25.70;61.00;;;;;;5027558;28;42932;-79
2023/09/09 02:18:33;;;;;;;;;;;25.90;61.60;;;;;;5027755;28;43300;-89
2023/09/09 02:20:58;;;;;;;;;;;25.80;61.40;;;;;;5039700;28;44257;-89
2023/09/09 02:23:24;;;;;;;;;;;25.90;61.10;;;;;;5048643;28;43039;-79
2023/09/09 02:25:49;;;;;;;;;;;25.70;61.50;;;;;;5036742;28;43572;-78
2023/09/09 02:28:15;;;;;;;;;;;25.70;61.50;;;;;;5027292;28;43022;-89
2023/09/09 02:30:43;;;;;;;;;;;25.80;61.40;;;;;;5028501;28;43034;-86
2023/09/09 02:33:09;;;;;;;;;;;25.70;59.10;;;;;;5028564;28;43067;-80
2023/09/09 02:35:35;;;;;;;;;;;25.90;61.50;;;;;;5028827;28;42965;-81
2023/09/09 02:38:00;;;;;;;;;;;25.40;60.80;;;;;;5029543;28;42911;-81
2023/09/09 02:40:26;;;;;;;;;;;25.80;61.30;;;;;;5026679;28;42894;-79
2023/09/09 02:42:51;;;;;;;;;;;25.70;61.20;;;;;;5027947;28;42891;-79
2023/09/09 02:45:17;;;;;;;;;;;25.70;60.60;;;;;;5027654;28;43502;-79
2023/09/09 02:47:42;;;;;;;;;;;25.50;61.00;;;;;;5045573;28;42962;-79
2023/09/09 02:50:08;;;;;;;;;;;25.60;61.30;;;;;;5045448;28;43507;-79
2023/09/09 02:52:33;;;;;;;;;;;25.60;61.10;;;;;;5046138;28;43083;-79
2023/09/09 02:54:59;;;;;;;;;;;25.50;61.40;;;;;;5046506;28;42974;-78
2023/09/09 02:57:25;;;;;;;;;;;25.60;61.50;;;;;;5045533;28;43130;-79
2023/09/09 02:59:50;;;;;;;;;;;25.50;61.40;;;;;;5046971;28;43549;-79
2023/09/09 03:02:16;;;;;;;;;;;25.40;61.50;;;;;;5045985;28;42862;-79
2023/09/09 03:04:42;;;;;;;;;;;25.60;61.00;;;;;;5046529;28;42984;-79
2023/09/09 03:07:07;;;;;;;;;;;25.60;61.10;;;;;;5041690;28;43007;-79
2023/09/09 03:09:33;;;;;;;;;;;25.60;61.50;;;;;;5026463;28;42947;-79
2023/09/09 03:12:01;;;;;;;;;;;25.60;61.60;;;;;;5026705;28;43091;-79
2023/09/09 03:14:26;;;;;;;;;;;25.50;61.40;;;;;;5026873;28;42911;-84
2023/09/09 03:16:52;;;;;;;;;;;25.50;61.60;;;;;;5027222;28;43041;-79
2023/09/09 03:19:17;;;;;;;;;;;25.60;61.10;;;;;;5026643;28;42973;-80
2023/09/09 03:21:43;;;;;;;;;;;25.40;61.10;;;;;;5025763;28;43630;-79
2023/09/09 03:24:08;;;;;;;;;;;25.50;61.80;;;;;;5026947;28;43000;-79
2023/09/09 03:26:34;;;;;;;;;;;25.40;61.80;;;;;;5027247;28;42857;-79
2023/09/09 03:28:59;;;;;;;;;;;25.40;61.20;;;;;;5027490;28;42922;-79
2023/09/09 03:31:25;;;;;;;;;;;25.40;61.90;;;;;;5040641;28;42942;-79
2023/09/09 03:33:51;;;;;;;;;;;25.60;61.90;;;;;;5027297;28;43246;-80
2023/09/09 03:36:16;;;;;;;;;;;25.50;61.90;;;;;;5027178;28;42777;-79
2023/09/09 03:38:41;;;;;;;;;;;25.40;61.80;;;;;;5026066;28;45314;-79
2023/09/09 03:41:07;;;;;;;;;;;25.30;62.00;;;;;;5027953;28;42947;-79
2023/09/09 03:43:33;;;;;;;;;;;25.40;62.10;;;;;;5024591;28;44494;-78
2023/09/09 03:45:59;;;;;;;;;;;25.30;62.20;;;;;;5026752;28;42934;-79
2023/09/09 03:48:24;;;;;;;;;;;25.30;62.30;;;;;;5027385;28;43479;-80
2023/09/09 03:50:50;;;;;;;;;;;25.30;62.30;;;;;;5028239;28;43074;-79
2023/09/09 03:53:15;;;;;;;;;;;25.40;62.40;;;;;;5027425;28;43628;-79
2023/09/09 03:55:41;;;;;;;;;;;25.20;62.20;;;;;;5028793;28;42956;-77
2023/09/09 03:58:06;;;;;;;;;;;25.20;62.40;;;;;;5027606;28;43683;-79
2023/09/09 04:00:32;;;;;;;;;;;25.20;62.40;;;;;;5026669;28;42985;-79
2023/09/09 04:02:58;;;;;;;;;;;25.10;62.40;;;;;;5027503;28;43199;-80
2023/09/09 04:05:24;;;;;;;;;;;25.20;62.50;;;;;;5029267;28;43070;-81
2023/09/09 04:07:50;;;;;;;;;;;25.20;62.40;;;;;;5027092;28;42915;-78
2023/09/09 04:10:16;;;;;;;;;;;25.10;62.40;;;;;;5028739;28;42921;-84
2023/09/09 04:12:41;;;;;;;;;;;25.20;62.70;;;;;;5027396;28;43168;-79
2023/09/09 04:15:07;;;;;;;;;;;25.30;62.50;;;;;;5027124;28;42930;-79
2023/09/09 04:17:33;;;;;;;;;;;25.30;62.00;;;;;;5027052;28;43036;-79
2023/09/09 04:19:58;;;;;;;;;;;25.30;62.20;;;;;;5024492;28;43090;-79
2023/09/09 04:22:25;;;;;;;;;;;25.20;62.40;;;;;;5035546;28;43448;-79
2023/09/09 04:24:53;;;;;;;;;;;25.40;62.30;;;;;;5045265;28;42931;-81
2023/09/09 04:27:19;;;;;;;;;;;25.30;62.00;;;;;;5045682;28;42975;-79
2023/09/09 04:29:45;;;;;;;;;;;25.30;62.10;;;;;;5044601;28;42965;-78
2023/09/09 04:32:10;;;;;;;;;;;25.30;62.00;;;;;;5035962;28;42989;-81
2023/09/09 04:34:36;;;;;;;;;;;25.20;62.00;;;;;;5037819;28;42960;-77
2023/09/09 04:37:02;;;;;;;;;;;25.20;62.20;;;;;;5035570;28;43515;-81
2023/09/09 04:39:27;;;;;;;;;;;25.20;62.10;;;;;;5044439;28;42839;-78
2023/09/09 04:41:53;;;;;;;;;;;25.10;62.10;;;;;;5034223;28;43729;-80
2023/09/09 04:44:18;;;;;;;;;;;25.20;62.20;;;;;;5041865;28;42914;-79
2023/09/09 04:46:44;;;;;;;;;;;25.30;62.10;;;;;;5045518;28;43030;-82
2023/09/09 04:49:09;;;;;;;;;;;25.30;62.00;;;;;;5027984;28;42900;-79
2023/09/09 04:51:35;;;;;;;;;;;25.30;62.20;;;;;;5011750;28;43464;-81
2023/09/09 04:54:01;;;;;;;;;;;25.20;62.10;;;;;;5023412;28;43573;-81
2023/09/09 04:56:26;;;;;;;;;;;25.40;62.10;;;;;;5024618;28;43658;-82
2023/09/09 04:58:52;;;;;;;;;;;25.30;62.00;;;;;;5041049;28;42924;-82
2023/09/09 05:01:17;;;;;;;;;;;25.30;61.60;;;;;;5043942;28;43020;-81
2023/09/09 05:03:43;;;;;;;;;;;25.40;61.20;;;;;;5032434;28;42946;-81
2023/09/09 05:06:08;;;;;;;;;;;25.40;62.10;;;;;;5035374;28;43616;-81
2023/09/09 05:08:34;;;;;;;;;;;25.40;62.00;;;;;;5022515;28;42997;-81
2023/09/09 05:10:59;;;;;;;;;;;24.90;61.90;;;;;;5024383;28;43144;-82
2023/09/09 05:13:25;;;;;;;;;;;25.30;62.10;;;;;;5026743;28;43214;-81
2023/09/09 05:15:51;;;;;;;;;;;25.00;61.80;;;;;;5043971;28;43874;-81
2023/09/09 05:18:16;;;;;;;;;;;24.70;61.00;;;;;;5035145;28;42939;-89
2023/09/09 05:20:43;;;;;;;;;;;25.40;61.50;;;;;;5024173;28;43419;-81
2023/09/09 05:23:08;;;;;;;;;;;25.40;62.50;;;;;;5026412;28;43018;-82
2023/09/09 05:25:34;;;;;;;;;;;25.30;62.20;;;;;;5032425;28;43010;-81
2023/09/09 05:27:59;;;;;;;;;;;25.30;62.30;;;;;;5023641;28;43017;-83
2023/09/09 05:30:25;;;;;;;;;;;25.20;63.00;;;;;;5024111;28;43536;-80
2023/09/09 05:32:50;;;;;;;;;;;25.20;62.50;;;;;;5023144;28;42879;-81
2023/09/09 05:35:16;;;;;;;;;;;25.20;62.40;;;;;;5022394;28;42909;-84
2023/09/09 05:37:42;;;;;;;;;;;25.30;62.00;;;;;;5023483;28;42934;-82
2023/09/09 05:40:08;;;;;;;;;;;25.40;62.60;;;;;;5020315;28;43308;-81
2023/09/09 05:42:34;;;;;;;;;;;25.30;61.50;;;;;;5011513;28;42934;-83
2023/09/09 05:45:00;;;;;;;;;;;25.30;61.80;;;;;;5027119;28;43638;-83
2023/09/09 05:47:26;;;;;;;;;;;25.40;62.60;;;;;;5029939;28;43040;-81
2023/09/09 05:49:51;;;;;;;;;;;25.40;62.70;;;;;;5032737;28;43269;-82
2023/09/09 05:52:17;;;;;;;;;;;25.50;62.80;;;;;;5023934;28;42978;-81
2023/09/09 05:54:42;;;;;;;;;;;25.40;62.70;;;;;;5022898;28;44289;-80
2023/09/09 05:57:08;;;;;;;;;;;25.40;62.40;;;;;;5022814;28;42987;-89
2023/09/09 05:59:34;;;;;;;;;;;25.50;61.90;;;;;;5023541;28;43073;-81
2023/09/09 06:01:59;;;;;;;;;;;25.40;62.60;;;;;;5024005;28;43214;-76
2023/09/09 06:04:25;;;;;;;;;;;25.40;62.10;;;;;;5024330;28;42994;-78
2023/09/09 06:06:51;;;;;;;;;;;25.60;62.70;;;;;;5025873;28;42830;-78
2023/09/09 06:09:16;;;;;;;;;;;25.60;62.50;;;;;;5024545;28;43150;-77
2023/09/09 06:11:42;;;;;;;;;;;25.60;62.40;;;;;;5028646;28;42907;-79
2023/09/09 06:14:07;;;;;;;;;;;25.60;62.00;;;;;;5026671;28;43225;-78
2023/09/09 06:16:33;;;;;;;;;;;25.70;62.70;;;;;;5029403;28;42897;-85
2023/09/09 06:18:59;;;;;;;;;;;25.70;62.60;;;;;;5024039;28;43606;-82
2023/09/09 06:21:25;;;;;;;;;;;25.50;62.30;;;;;;5029515;28;43156;-86
2023/09/09 06:23:50;;;;;;;;;;;25.70;62.40;;;;;;5032145;28;43335;-80
2023/09/09 06:26:16;;;;;;;;;;;25.90;62.60;;;;;;5031914;28;42949;-79
2023/09/09 06:28:41;;;;;;;;;;;25.80;62.60;;;;;;5036041;28;43165;-80
2023/09/09 06:31:07;;;;;;;;;;;26.00;62.60;;;;;;5031453;28;42998;-79
2023/09/09 06:33:33;;;;;;;;;;;25.90;61.90;;;;;;5035519;28;43488;-80
2023/09/09 06:35:59;;;;;;;;;;;25.90;62.30;;;;;;5032418;28;42945;-83
2023/09/09 06:38:24;;;;;;;;;;;26.00;61.90;;;;;;5034388;28;43644;-81
2023/09/09 06:40:50;;;;;;;;;;;26.00;62.20;;;;;;5032589;28;42990;-79
2023/09/09 06:43:19;;;;;;;;;;;26.30;62.40;;;;;;5035761;28;43017;-81
2023/09/09 06:45:45;;;;;;;;;;;26.00;59.80;;;;;;5032883;28;43004;-80
2023/09/09 06:48:10;;;;;;;;;;;26.10;61.60;;;;;;5035045;28;42995;-81
2023/09/09 06:50:36;;;;;;;;;;;26.10;61.50;;;;;;5032831;28;42888;-79
2023/09/09 06:53:01;;;;;;;;;;;26.00;62.00;;;;;;5034801;28;42941;-81
2023/09/09 06:55:29;;;;;;;;;;;26.10;60.60;;;;;;5030547;28;59650;-80
2023/09/09 06:57:55;;;;;;;;;;;26.20;61.70;;;;;;5036801;28;43327;-79
2023/09/09 07:00:20;;;;;;;;;;;26.20;61.60;;;;;;5035740;28;43001;-82
2023/09/09 07:02:46;;;;;;;;;;;26.00;62.20;;;;;;5037890;28;42989;-86
2023/09/09 07:05:16;;;;;;;;;;;26.40;61.80;;;;;;5035916;28;43241;-79
2023/09/09 07:07:42;;;;;;;;;;;26.30;61.70;;;;;;5036198;28;44913;-80
2023/09/09 07:10:08;;;;;;;;;;;26.20;61.60;;;;;;5036277;28;42913;-80
2023/09/09 07:12:34;;;;;;;;;;;26.30;61.00;;;;;;5037003;28;43789;-80
2023/09/09 07:14:59;;;;;;;;;;;26.20;61.70;;;;;;5036430;28;42942;-80
2023/09/09 07:17:25;;;;;;;;;;;26.30;61.70;;;;;;5037909;28;43394;-79
2023/09/09 07:19:50;;;;;;;;;;;26.20;61.00;;;;;;5026822;28;43112;-80
2023/09/09 07:22:16;;;;;;;;;;;26.20;61.00;;;;;;5026182;28;42970;-79
2023/09/09 07:24:41;;;;;;;;;;;26.20;61.60;;;;;;5026201;28;42941;-79
2023/09/09 07:27:07;;;;;;;;;;;26.20;61.60;;;;;;5027004;28;43610;-83
2023/09/09 07:29:32;;;;;;;;;;;26.20;61.50;;;;;;5026546;28;43093;-82
2023/09/09 07:31:58;;;;;;;;;;;26.20;61.60;;;;;;5026062;28;42873;-81
2023/09/09 07:34:24;;;;;;;;;;;26.10;61.70;;;;;;5026249;28;42954;-80
2023/09/09 07:36:50;;;;;;;;;;;26.30;61.70;;;;;;5026282;28;43465;-79
2023/09/09 07:39:16;;;;;;;;;;;26.20;61.70;;;;;;5026580;28;43524;-85
2023/09/09 07:41:42;;;;;;;;;;;26.20;61.70;;;;;;5026028;28;42863;-80
2023/09/09 07:44:07;;;;;;;;;;;26.30;61.90;;;;;;5025804;28;43055;-79
2023/09/09 07:46:33;;;;;;;;;;;26.30;61.80;;;;;;5025730;28;43326;-79
2023/09/09 07:48:58;;;;;;;;;;;26.20;61.90;;;;;;5024833;28;42966;-79
2023/09/09 07:51:24;;;;;;;;;;;26.30;61.90;;;;;;5026329;28;42962;-83
2023/09/09 07:53:49;;;;;;;;;;;25.90;61.40;;;;;;5025682;28;42985;-81
2023/09/09 07:56:15;;;;;;;;;;;26.30;61.80;;;;;;5024352;28;43489;-80
2023/09/09 07:58:40;;;;;;;;;;;26.30;61.80;;;;;;5026381;28;43049;-80
2023/09/09 08:01:07;;;;;;;;;;;26.20;61.70;;;;;;5025755;28;43617;-79
2023/09/09 08:03:33;;;;;;;;;;;26.20;61.70;;;;;;5027514;28;43079;-80
2023/09/09 08:06:04;;;;;;;;;;;26.20;61.60;;;;;;5045744;28;42894;-80
2023/09/09 08:08:30;;;;;;;;;;;26.30;59.30;;;;;;5044400;28;42980;-79
2023/09/09 08:10:55;;;;;;;;;;;26.40;61.80;;;;;;5044921;28;43045;-78
2023/09/09 08:13:21;;;;;;;;;;;26.20;61.50;;;;;;5043551;28;43074;-79
2023/09/09 08:15:47;;;;;;;;;;;27.00;62.00;;;;;;5044195;28;43548;-82
2023/09/09 08:18:13;;;;;;;;;;;26.50;61.60;;;;;;5042088;28;42967;-79
2023/09/09 08:20:38;;;;;;;;;;;26.40;61.30;;;;;;5034111;28;43395;-79
2023/09/09 08:23:04;;;;;;;;;;;26.50;61.50;;;;;;5044431;28;42922;-80
2023/09/09 08:25:32;;;;;;;;;;;26.40;61.40;;;;;;5045263;28;43039;-80
2023/09/09 08:28:03;;;;;;;;;;;26.30;59.40;;;;;;5044108;28;42819;-80
2023/09/09 08:30:29;;;;;;;;;;;26.50;58.80;;;;;;5044912;28;42944;-80
2023/09/09 08:32:55;;;;;;;;;;;26.50;60.90;;;;;;5043358;28;43600;-80
2023/09/09 08:35:21;;;;;;;;;;;26.40;59.90;;;;;;5044228;28;43522;-80
2023/09/09 08:37:47;;;;;;;;;;;26.50;59.70;;;;;;5042698;28;43039;-79
2023/09/09 08:40:13;;;;;;;;;;;26.50;59.10;;;;;;5043879;28;43089;-80
2023/09/09 08:42:44;;;;;;;;;;;26.50;59.30;;;;;;5040281;28;42978;-84
2023/09/09 08:45:23;;;;;;;;;;;26.40;57.50;;;;;;5032653;28;43008;-79
2023/09/09 08:47:50;;;;;;;;;;;26.50;57.40;;;;;;5040367;28;42937;-81
2023/09/09 08:50:15;;;;;;;;;;;26.60;59.50;;;;;;5043439;28;42977;-79
2023/09/09 08:52:42;;;;;;;;;;;26.70;60.30;;;;;;5042867;28;43002;-80
2023/09/09 08:55:09;;;;;;;;;;;26.60;59.50;;;;;;5043345;28;43800;-82
2023/09/09 08:57:34;;;;;;;;;;;26.70;59.30;;;;;;5042534;28;42832;-79
2023/09/09 09:00:01;;;;;;;;;;;26.50;59.20;;;;;;5042982;28;43411;-86
2023/09/09 09:02:27;;;;;;;;;;;26.60;59.80;;;;;;5042462;28;43437;-84
2023/09/09 09:04:54;;;;;;;;;;;26.70;59.70;;;;;;5042707;28;43386;-81
2023/09/09 09:07:20;;;;;;;;;;;26.60;59.10;;;;;;5037636;28;42899;-79
2023/09/09 09:09:46;;;;;;;;;;;26.40;59.30;;;;;;5035922;28;44459;-87
2023/09/09 09:12:13;;;;;;;;;;;26.60;59.40;;;;;;5043356;28;42980;-80
2023/09/09 09:14:47;;;;;;;;;;;26.50;59.20;;;;;;5042802;28;42980;-79
2023/09/09 09:17:19;;;;;;;;;;;26.50;57.00;;;;;;5021220;28;42879;-79
2023/09/09 09:19:44;;;;;;;;;;;26.60;56.80;;;;;;5027194;28;43009;-78
2023/09/09 09:22:12;;;;;;;;;;;26.50;59.00;;;;;;5023017;28;42816;-79
2023/09/09 09:24:42;;;;;;;;;;;26.50;58.90;;;;;;5036977;28;43395;-79
2023/09/09 09:27:11;;;;;;;;;;;26.60;56.80;;;;;;5033273;28;43011;-79
2023/09/09 09:29:38;;;;;;;;;;;26.60;56.80;;;;;;5043713;28;43568;-79
2023/09/09 09:32:04;;;;;;;;;;;26.50;59.00;;;;;;5044320;28;42884;-80
2023/09/09 09:34:33;;;;;;;;;;;26.70;59.00;;;;;;5042601;28;43859;-79
2023/09/09 09:37:01;;;;;;;;;;;26.60;56.70;;;;;;5042986;28;42991;-82
2023/09/09 09:39:33;;;;;;;;;;;26.60;59.10;;;;;;5042791;28;43159;-79
2023/09/09 09:41:58;;;;;;;;;;;26.60;59.10;;;;;;5043426;28;42759;-81
2023/09/09 09:44:24;;;;;;;;;;;26.50;58.90;;;;;;5038053;28;42901;-83
2023/09/09 09:47:02;;;;;;;;;;;26.40;59.00;;;;;;5035859;28;43341;-80
2023/09/09 09:49:34;;;;;;;;;;;26.40;59.50;;;;;;5041989;28;43552;-80
2023/09/09 09:52:00;;;;;;;;;;;26.70;57.40;;;;;;5040969;28;42913;-82
2023/09/09 09:54:25;;;;;;;;;;;26.50;59.80;;;;;;5043141;28;43063;-82
2023/09/09 09:56:52;;;;;;;;;;;26.70;60.10;;;;;;5042174;28;42864;-83
2023/09/09 09:59:19;;;;;;;;;;;26.70;60.30;;;;;;5018837;28;42981;-80
2023/09/09 10:01:44;;;;;;;;;;;26.70;60.70;;;;;;5041730;28;42834;-80
2023/09/09 10:04:11;;;;;;;;;;;26.60;60.80;;;;;;5042543;28;43038;-80
2023/09/09 10:06:38;;;;;;;;;;;26.70;61.00;;;;;;5041130;28;42960;-79
2023/09/09 10:09:12;;;;;;;;;;;26.60;62.10;;;;;;5042337;28;43064;-80
2023/09/09 10:11:42;;;;;;;;;;;26.70;59.10;;;;;;5041719;28;42914;-80
2023/09/09 10:14:13;;;;;;;;;;;26.50;61.90;;;;;;5043111;28;42938;-82
2023/09/09 10:16:39;;;;;;;;;;;26.40;59.10;;;;;;5042476;28;42983;-80
2023/09/09 10:19:06;;;;;;;;;;;26.70;61.30;;;;;;5034052;28;42912;-86
2023/09/09 10:21:33;;;;;;;;;;;26.70;61.50;;;;;;5039532;28;42922;-79
2023/09/09 10:23:59;;;;;;;;;;;26.60;61.30;;;;;;5042870;28;43993;-79
2023/09/09 10:26:25;;;;;;;;;;;26.70;61.00;;;;;;5044309;28;43131;-79
2023/09/09 10:28:50;;;;;;;;;;;26.50;61.10;;;;;;5035163;28;43599;-84
2023/09/09 10:31:17;;;;;;;;;;;26.70;61.60;;;;;;5039328;28;44045;-79
2023/09/09 10:33:45;;;;;;;;;;;26.70;61.50;;;;;;5037369;28;42952;-82
2023/09/09 10:36:12;;;;;;;;;;;26.60;61.30;;;;;;5046071;28;42974;-79
2023/09/09 10:38:38;;;;;;;;;;;26.80;61.20;;;;;;5046372;28;43670;-83
2023/09/09 10:41:04;;;;;;;;;;;26.60;60.50;;;;;;5045016;28;43485;-79
2023/09/09 10:43:30;;;;;;;;;;;26.60;61.00;;;;;;5046376;28;43288;-79
2023/09/09 10:45:55;;;;;;;;;;;26.70;60.70;;;;;;5045788;28;42957;-81
2023/09/09 10:48:21;;;;;;;;;;;26.80;59.00;;;;;;5045597;28;44423;-79
2023/09/09 10:50:49;;;;;;;;;;;26.70;60.10;;;;;;5046072;28;43139;-86
2023/09/09 10:53:27;;;;;;;;;;;26.80;60.50;;;;;;5046350;28;42818;-84
2023/09/09 10:55:54;;;;;;;;;;;26.70;57.90;;;;;;5045679;28;42958;-79
2023/09/09 10:58:21;;;;;;;;;;;26.80;60.50;;;;;;5046642;28;42906;-80
2023/09/09 11:00:47;;;;;;;;;;;26.60;60.20;;;;;;5046044;28;43047;-80
2023/09/09 11:03:18;;;;;;;;;;;26.80;60.00;;;;;;5040921;28;44380;-80
2023/09/09 11:05:57;;;;;;;;;;;26.80;59.60;;;;;;5042083;28;43031;-80
2023/09/09 11:08:30;;;;;;;;;;;26.80;57.60;;;;;;5035992;28;43591;-80
2023/09/09 11:11:08;;;;;;;;;;;26.60;57.60;;;;;;5045724;28;42995;-81
2023/09/09 11:13:38;;;;;;;;;;;26.90;57.60;;;;;;5040518;28;43671;-83
2023/09/09 11:16:05;;;;;;;;;;;26.60;57.20;;;;;;5037486;28;43028;-79
2023/09/09 11:18:31;;;;;;;;;;;26.40;59.40;;;;;;5031732;28;43707;-82
2023/09/09 11:20:58;;;;;;;;;;;26.70;59.70;;;;;;5037946;28;43003;-81
2023/09/09 11:23:25;;;;;;;;;;;26.90;60.20;;;;;;5027040;28;43887;-79
2023/09/09 11:25:51;;;;;;;;;;;26.80;60.00;;;;;;5024925;28;42902;-79
2023/09/09 11:28:17;;;;;;;;;;;26.80;60.10;;;;;;5026430;28;42991;-83
2023/09/09 11:30:43;;;;;;;;;;;26.80;59.50;;;;;;5041855;28;42977;-83
2023/09/09 11:33:08;;;;;;;;;;;26.90;58.80;;;;;;5026457;28;43614;-80
2023/09/09 11:35:34;;;;;;;;;;;26.80;58.30;;;;;;5026434;28;43123;-79
2023/09/09 11:38:03;;;;;;;;;;;26.80;58.90;;;;;;5026550;28;43068;-80
2023/09/09 11:40:29;;;;;;;;;;;26.80;56.80;;;;;;5026341;28;42987;-81
2023/09/09 11:42:54;;;;;;;;;;;26.80;59.40;;;;;;5026474;28;43606;-82
2023/09/09 11:45:20;;;;;;;;;;;26.80;59.40;;;;;;5026258;28;42919;-83
2023/09/09 11:47:47;;;;;;;;;;;26.80;59.30;;;;;;5026479;28;43593;-78
2023/09/09 11:50:12;;;;;;;;;;;26.60;59.60;;;;;;5025161;28;43006;-80
2023/09/09 11:52:37;;;;;;;;;;;26.90;59.60;;;;;;5026268;28;43596;-83
2023/09/09 11:55:03;;;;;;;;;;;26.70;59.60;;;;;;5026724;28;42897;-79
2023/09/09 11:57:29;;;;;;;;;;;26.70;59.50;;;;;;5026613;28;42926;-80
2023/09/09 11:59:57;;;;;;;;;;;26.80;59.70;;;;;;5025425;28;42865;-82
2023/09/09 12:02:26;;;;;;;;;;;27.00;59.80;;;;;;5025980;28;43455;-78
2023/09/09 12:04:52;;;;;;;;;;;27.00;57.50;;;;;;5026464;28;42930;-82
2023/09/09 12:07:18;;;;;;;;;;;26.90;59.70;;;;;;5026736;28;43004;-80
2023/09/09 12:09:44;;;;;;;;;;;26.90;59.70;;;;;;5026262;28;42923;-79
2023/09/09 12:12:09;;;;;;;;;;;26.80;59.60;;;;;;5027119;28;43554;-78
2023/09/09 12:14:35;;;;;;;;;;;26.80;59.50;;;;;;5025935;28;43056;-78
2023/09/09 12:17:00;;;;;;;;;;;26.80;59.30;;;;;;5026651;28;42847;-80
2023/09/09 12:19:26;;;;;;;;;;;26.90;59.10;;;;;;5026542;28;42906;-78
2023/09/09 12:21:52;;;;;;;;;;;26.80;59.30;;;;;;5028403;28;43136;-78
2023/09/09 12:24:17;;;;;;;;;;;26.90;59.30;;;;;;5025935;28;42717;-79
2023/09/09 12:26:53;;;;;;;;;;;26.90;59.10;;;;;;5039039;28;43324;-81
2023/09/09 12:29:18;;;;;;;;;;;27.00;56.90;;;;;;5028182;28;43016;-79
2023/09/09 12:31:52;;;;;;;;;;;27.00;58.80;;;;;;5024796;28;43868;-79
2023/09/09 12:34:22;;;;;;;;;;;27.10;56.90;;;;;;5024709;28;43307;-83
2023/09/09 12:36:48;;;;;;;;;;;26.90;56.90;;;;;;5025398;28;43265;-78
2023/09/09 12:39:27;;;;;;;;;;;27.00;59.30;;;;;;5026576;28;42958;-78
2023/09/09 12:41:59;;;;;;;;;;;26.80;56.80;;;;;;5034887;28;43533;-78
2023/09/09 12:44:25;;;;;;;;;;;26.90;56.80;;;;;;5042917;28;42950;-78
2023/09/09 12:46:51;;;;;;;;;;;26.90;59.10;;;;;;5045252;28;43643;-78
2023/09/09 12:49:16;;;;;;;;;;;26.80;59.10;;;;;;5039726;28;43078;-81
2023/09/09 12:51:42;;;;;;;;;;;26.90;59.30;;;;;;5044491;28;43815;-80
2023/09/09 12:54:08;;;;;;;;;;;27.00;59.00;;;;;;5041913;28;42858;-80
2023/09/09 12:56:33;;;;;;;;;;;27.10;59.30;;;;;;5044938;28;42833;-79
2023/09/09 12:58:59;;;;;;;;;;;26.90;59.10;;;;;;5043036;28;42865;-83
2023/09/09 13:01:24;;;;;;;;;;;27.10;60.00;;;;;;5032983;28;43542;-79
2023/09/09 13:03:50;;;;;;;;;;;27.10;59.50;;;;;;5028497;28;43075;-80
2023/09/09 13:06:15;;;;;;;;;;;27.30;59.10;;;;;;5034181;28;42992;-81
2023/09/09 13:08:41;;;;;;;;;;;27.10;58.80;;;;;;5028986;28;43056;-80
2023/09/09 13:11:06;;;;;;;;;;;27.10;59.50;;;;;;5034002;28;42937;-83
2023/09/09 13:13:32;;;;;;;;;;;26.90;59.70;;;;;;5025485;28;43100;-78
2023/09/09 13:15:58;;;;;;;;;;;27.00;59.20;;;;;;5042276;28;43311;-78
2023/09/09 13:18:23;;;;;;;;;;;26.80;59.40;;;;;;5035219;28;43009;-80
2023/09/09 13:20:49;;;;;;;;;;;26.80;58.70;;;;;;5023130;28;43825;-80
2023/09/09 13:23:15;;;;;;;;;;;26.90;59.50;;;;;;5024534;28;43085;-79
2023/09/09 13:25:40;;;;;;;;;;;27.00;59.50;;;;;;5023180;28;44633;-79
2023/09/09 13:28:06;;;;;;;;;;;27.20;59.50;;;;;;5023629;28;43095;-78
2023/09/09 13:30:32;;;;;;;;;;;27.00;59.30;;;;;;5035877;28;42966;-79
2023/09/09 13:32:57;;;;;;;;;;;27.00;58.90;;;;;;5029110;28;43889;-78
2023/09/09 13:35:23;;;;;;;;;;;27.10;58.70;;;;;;5042418;28;42985;-81
2023/09/09 13:37:48;;;;;;;;;;;27.10;59.20;;;;;;5040907;28;42910;-78
2023/09/09 13:40:14;;;;;;;;;;;27.10;59.40;;;;;;5042575;28;42854;-78
2023/09/09 13:42:42;;;;;;;;;;;27.30;58.80;;;;;;5039160;28;43059;-77
2023/09/09 13:45:07;;;;;;;;;;;27.30;59.30;;;;;;5033385;28;43772;-80
2023/09/09 13:47:33;;;;;;;;;;;27.20;58.30;;;;;;5031370;28;42940;-83
2023/09/09 13:50:02;;;;;;;;;;;27.30;59.40;;;;;;5032765;28;43991;-77
2023/09/09 13:52:28;;;;;;;;;;;27.20;57.20;;;;;;5032814;28;42996;-79
2023/09/09 13:54:54;;;;;;;;;;;27.20;59.30;;;;;;5034750;28;43620;-78
2023/09/09 13:57:19;;;;;;;;;;;27.10;59.30;;;;;;5033209;28;42911;-81
2023/09/09 13:59:45;;;;;;;;;;;27.20;59.40;;;;;;5034188;28;42952;-78
2023/09/09 14:02:10;;;;;;;;;;;27.20;59.50;;;;;;5024124;28;42941;-78
2023/09/09 14:04:36;;;;;;;;;;;27.20;59.00;;;;;;5029562;28;43333;-79
2023/09/09 14:07:01;;;;;;;;;;;27.40;59.00;;;;;;5035530;28;43138;-77
2023/09/09 14:09:27;;;;;;;;;;;27.20;58.10;;;;;;5025888;28;43247;-80
2023/09/09 14:11:54;;;;;;;;;;;27.20;57.90;;;;;;5024500;28;43081;-79